Time;durP1;ratioP1;P1;durP2;ratioP2;P2;SDS_P1;SDS_P2;PMS_P1;PMS_P2;Temp;Humidity;BMP_temperature;BMP_pressure;BME280_temperature;BME280_humidity;BME280_pressure;Samples;Min_cycle;Max_cycle;Signal;HPM_P1;HPM_P2
2020/12/19 00:01:56;;;;;;;18.80;10.15;;;;;;;4.24;84.25;101805.22;10123936;28;20101;-66
2020/12/19 00:07:08;;;;;;;20.10;10.27;;;;;;;4.19;84.35;101801.38;10122792;28;20046;-65
2020/12/19 00:12:05;;;;;;;15.95;10.45;;;;;;;4.19;84.56;101800.56;10109862;28;20113;-66
2020/12/19 00:17:04;;;;;;;14.18;9.43;;;;;;;4.23;84.18;101790.88;10114294;28;20089;-66
2020/12/19 00:22:00;;;;;;;16.08;10.13;;;;;;;4.17;83.92;101794.56;10122189;28;20054;-65
2020/12/19 00:26:56;;;;;;;16.30;10.70;;;;;;;4.19;83.81;101792.44;10140419;28;20046;-65
2020/12/19 00:31:52;;;;;;;17.90;9.93;;;;;;;4.10;84.29;101785.81;10121970;28;20077;-65
2020/12/19 00:36:48;;;;;;;18.08;10.07;;;;;;;4.09;84.19;101789.59;10125677;28;20050;-65
2020/12/19 00:41:45;;;;;;;18.83;9.93;;;;;;;4.06;84.44;101779.22;10136811;28;20147;-65
2020/12/19 00:46:41;;;;;;;17.15;10.40;;;;;;;3.99;84.11;101774.84;10127399;28;20406;-65
2020/12/19 00:51:37;;;;;;;19.35;9.77;;;;;;;3.92;84.48;101768.78;10119958;28;20122;-65
2020/12/19 00:56:33;;;;;;;16.83;10.57;;;;;;;3.88;84.87;101756.00;10116335;28;21452;-65
2020/12/19 01:01:29;;;;;;;17.77;10.52;;;;;;;3.85;84.74;101757.28;10125566;28;20559;-65
2020/12/19 01:06:27;;;;;;;18.38;11.40;;;;;;;3.86;84.49;101763.53;10124313;28;20789;-64
2020/12/19 01:11:25;;;;;;;17.35;10.75;;;;;;;3.80;85.16;101762.63;10128302;28;20059;-65
2020/12/19 01:16:23;;;;;;;19.75;11.38;;;;;;;3.77;84.55;101755.00;10130318;28;20054;-65
2020/12/19 01:21:24;;;;;;;20.52;12.27;;;;;;;3.69;85.35;101748.13;10119684;28;20067;-64
2020/12/19 01:26:20;;;;;;;18.77;12.43;;;;;;;3.68;84.95;101745.66;10124346;28;20098;-65
2020/12/19 01:31:18;;;;;;;22.67;12.95;;;;;;;3.66;85.43;101758.59;10134756;28;20415;-65
2020/12/19 01:36:18;;;;;;;19.15;11.93;;;;;;;3.66;85.35;101753.19;10135454;28;20506;-65
2020/12/19 01:41:15;;;;;;;20.40;13.20;;;;;;;3.66;85.02;101753.19;10129076;28;20180;-65
2020/12/19 01:46:12;;;;;;;18.13;13.40;;;;;;;3.58;85.66;101749.84;10119502;28;20062;-66
2020/12/19 01:51:08;;;;;;;20.52;13.73;;;;;;;3.63;85.18;101748.28;10124019;28;20070;-64
2020/12/19 01:56:04;;;;;;;24.83;13.52;;;;;;;3.59;85.40;101742.53;10125299;28;20092;-65
2020/12/19 02:01:02;;;;;;;24.83;13.95;;;;;;;3.59;85.20;101737.13;10127829;28;20090;-65
2020/12/19 02:06:07;;;;;;;20.98;14.27;;;;;;;3.61;85.03;101735.00;10130884;28;20054;-65
2020/12/19 02:11:05;;;;;;;22.27;13.55;;;;;;;3.61;84.98;101728.78;10120130;28;20097;-65
2020/12/19 02:16:01;;;;;;;21.65;13.40;;;;;;;3.53;85.28;101720.00;10106125;28;20078;-65
2020/12/19 02:20:57;;;;;;;23.13;14.00;;;;;;;3.56;85.24;101716.81;10140642;28;20506;-65
2020/12/19 02:25:53;;;;;;;23.33;16.10;;;;;;;3.57;85.13;101713.06;10122173;28;20239;-65
2020/12/19 02:30:49;;;;;;;24.95;14.43;;;;;;;3.47;85.35;101718.28;10123187;28;20078;-65
2020/12/19 02:35:46;;;;;;;23.67;15.57;;;;;;;3.49;86.06;101716.16;10125148;28;20157;-65
2020/12/19 02:40:42;;;;;;;28.95;16.10;;;;;;;3.44;86.06;101724.19;10124470;28;20151;-65
2020/12/19 02:45:38;;;;;;;25.90;16.95;;;;;;;3.41;86.52;101719.25;10122746;28;20061;-64
2020/12/19 02:50:34;;;;;;;22.67;14.98;;;;;;;3.44;85.96;101718.78;10134194;28;20489;-65
2020/12/19 02:55:30;;;;;;;29.15;17.75;;;;;;;3.41;86.68;101719.25;10126180;28;20058;-65
2020/12/19 03:00:26;;;;;;;25.52;16.70;;;;;;;3.39;86.37;101707.88;10122374;28;20054;-65
2020/12/19 03:05:22;;;;;;;30.55;18.40;;;;;;;3.38;86.44;101708.94;10121738;28;20060;-65
2020/12/19 03:10:18;;;;;;;28.08;19.08;;;;;;;3.41;86.80;101711.16;10124632;28;20078;-66
2020/12/19 03:15:14;;;;;;;28.55;17.17;;;;;;;3.39;85.82;101705.19;10125318;28;20054;-66
2020/12/19 03:20:10;;;;;;;28.15;17.58;;;;;;;3.33;86.46;101706.16;10127803;28;20047;-66
2020/12/19 03:25:07;;;;;;;27.92;18.60;;;;;;;3.38;86.55;101687.31;10124537;28;20073;-66
2020/12/19 03:30:13;;;;;;;31.33;17.73;;;;;;;3.34;86.53;101686.16;10132295;28;20050;-65
2020/12/19 03:35:09;;;;;;;29.98;18.95;;;;;;;3.38;86.26;101680.00;10119930;28;20074;-67
2020/12/19 03:40:05;;;;;;;26.02;16.67;;;;;;;3.37;86.37;101674.88;10120471;28;20109;-66
2020/12/19 03:45:01;;;;;;;28.15;18.08;;;;;;;3.34;86.56;101667.22;10132778;28;20077;-66
2020/12/19 03:49:59;;;;;;;32.53;19.00;;;;;;;3.36;86.20;101673.22;10121200;28;20058;-66
2020/12/19 03:54:55;;;;;;;34.13;19.73;;;;;;;3.35;86.51;101660.78;10120071;28;20054;-65
2020/12/19 03:59:51;;;;;;;29.63;18.33;;;;;;;3.30;86.85;101658.00;10126957;28;20134;-65
2020/12/19 04:04:47;;;;;;;31.98;19.48;;;;;;;3.33;87.24;101652.09;10126036;28;20054;-65
2020/12/19 04:09:43;;;;;;;32.22;19.23;;;;;;;3.32;86.45;101645.06;10129972;28;20145;-65
2020/12/19 04:14:42;;;;;;;34.65;20.20;;;;;;;3.34;86.92;101642.91;10133419;28;20055;-64
2020/12/19 04:19:40;;;;;;;32.97;21.25;;;;;;;3.28;86.99;101641.22;10134546;28;20081;-65
2020/12/19 04:24:36;;;;;;;32.05;19.85;;;;;;;3.27;87.31;101636.84;10129387;28;20093;-65
2020/12/19 04:29:32;;;;;;;35.83;21.40;;;;;;;3.21;87.60;101640.56;10121058;28;20487;-65
2020/12/19 04:34:28;;;;;;;36.78;21.02;;;;;;;3.25;87.80;101638.97;10127176;28;20231;-65
2020/12/19 04:39:24;;;;;;;38.20;21.88;;;;;;;3.18;87.52;101636.47;10122933;28;20058;-65
2020/12/19 04:44:20;;;;;;;33.33;20.77;;;;;;;3.19;87.89;101635.38;10116197;28;20101;-65
2020/12/19 04:49:18;;;;;;;33.10;20.52;;;;;;;3.21;88.23;101627.03;10121269;28;20074;-64
2020/12/19 04:54:14;;;;;;;34.00;21.48;;;;;;;3.21;88.03;101633.25;10121005;28;20054;-65
2020/12/19 04:59:10;;;;;;;40.17;22.38;;;;;;;3.23;88.06;101630.31;10131365;28;20046;-66
2020/12/19 05:04:13;;;;;;;34.67;20.58;;;;;;;3.17;87.23;101616.69;10113465;28;20269;-65
2020/12/19 05:09:09;;;;;;;37.97;22.00;;;;;;;3.17;88.02;101622.09;10118859;28;20074;-65
2020/12/19 05:14:06;;;;;;;39.22;22.75;;;;;;;3.21;87.42;101616.22;10132425;28;20485;-65
2020/12/19 05:19:07;;;;;;;34.45;20.30;;;;;;;3.19;87.73;101619.16;10117412;28;20055;-64
2020/12/19 05:24:03;;;;;;;39.88;22.48;;;;;;;3.16;87.76;101622.38;10122141;28;20105;-66
2020/12/19 05:28:59;;;;;;;37.10;22.48;;;;;;;3.19;87.38;101607.53;10137582;28;20819;-67
2020/12/19 05:33:55;;;;;;;38.05;22.35;;;;;;;3.21;87.94;101616.22;10121460;28;20149;-67
2020/12/19 05:38:57;;;;;;;38.58;21.90;;;;;;;3.22;87.73;101617.84;10130892;28;20047;-66
2020/12/19 05:43:55;;;;;;;37.30;20.98;;;;;;;3.21;88.25;101617.03;10127085;28;20602;-65
2020/12/19 05:48:51;;;;;;;39.70;21.55;;;;;;;3.23;88.18;101614.09;10109830;28;20082;-66
2020/12/19 05:53:51;;;;;;;33.97;19.65;;;;;;;3.21;87.76;101610.81;10126449;28;20058;-67
2020/12/19 05:58:47;;;;;;;36.65;21.90;;;;;;;3.22;87.67;101615.16;10128779;28;20544;-65
2020/12/19 06:03:46;;;;;;;35.30;21.48;;;;;;;3.21;87.76;101608.13;10131339;28;20054;-66
2020/12/19 06:08:43;;;;;;;34.63;21.08;;;;;;;3.24;87.74;101604.91;10130347;28;20046;-65
2020/12/19 06:13:44;;;;;;;35.40;20.80;;;;;;;3.22;87.93;101596.22;10128847;28;20133;-65
2020/12/19 06:18:53;;;;;;;34.92;20.38;;;;;;;3.23;87.67;101592.47;10127110;28;20050;-64
2020/12/19 06:23:50;;;;;;;37.63;21.05;;;;;;;3.22;87.57;101585.44;10132131;28;20070;-66
2020/12/19 06:28:48;;;;;;;33.38;21.50;;;;;;;3.22;87.22;101585.44;10131312;28;20514;-66
2020/12/19 06:33:48;;;;;;;39.30;20.45;;;;;;;3.15;87.30;101586.41;10119737;28;20111;-66
2020/12/19 06:39:09;;;;;;;33.35;20.30;;;;;;;3.16;87.75;101571.84;10122706;28;20050;-66
2020/12/19 06:44:11;;;;;;;36.85;21.23;;;;;;;3.16;87.68;101577.25;10119212;28;20150;-65
2020/12/19 06:49:25;;;;;;;32.50;19.40;;;;;;;3.20;88.12;101576.75;10110454;28;20039;-65
2020/12/19 06:54:28;;;;;;;37.45;21.60;;;;;;;3.19;87.27;101580.53;10125712;28;20482;-65
2020/12/19 06:59:28;;;;;;;32.17;19.17;;;;;;;3.21;87.71;101573.81;10118085;28;20050;-65
2020/12/19 07:04:32;;;;;;;31.30;19.52;;;;;;;3.24;87.38;101583.28;10124910;28;20058;-66
2020/12/19 07:09:29;;;;;;;33.88;20.08;;;;;;;3.23;87.05;101585.19;10117250;28;20054;-65
2020/12/19 07:14:25;;;;;;;34.15;21.33;;;;;;;3.22;87.11;101585.44;10125486;28;20125;-66
2020/12/19 07:19:24;;;;;;;35.25;20.65;;;;;;;3.22;86.95;101569.22;10120547;28;20058;-66
2020/12/19 07:24:20;;;;;;;31.55;19.17;;;;;;;3.22;86.87;101569.22;10129263;28;20546;-66
2020/12/19 07:29:18;;;;;;;35.05;18.67;;;;;;;3.18;87.39;101574.31;10129999;28;20138;-65
2020/12/19 07:34:15;;;;;;;28.88;17.95;;;;;;;3.20;86.93;101582.16;10133744;28;20502;-66
2020/12/19 07:39:12;;;;;;;31.08;18.73;;;;;;;3.18;87.35;101579.72;10108013;28;20138;-66
2020/12/19 07:44:11;;;;;;;32.50;20.02;;;;;;;3.19;87.25;101575.94;10117059;28;20166;-68
2020/12/19 07:49:07;;;;;;;34.70;19.77;;;;;;;3.15;87.07;101578.28;10109628;28;20104;-66
2020/12/19 07:54:11;;;;;;;32.13;19.48;;;;;;;3.17;87.35;101589.69;10123893;28;20146;-65
2020/12/19 07:59:09;;;;;;;31.13;18.40;;;;;;;3.22;87.09;101590.81;10125464;28;20114;-65
2020/12/19 08:04:06;;;;;;;27.88;17.83;;;;;;;3.24;86.79;101588.69;10133882;28;20434;-68
2020/12/19 08:09:02;;;;;;;33.00;18.90;;;;;;;3.24;87.02;101578.69;10130639;28;20461;-68
2020/12/19 08:13:58;;;;;;;32.17;18.35;;;;;;;3.30;87.17;101576.91;10101828;28;20054;-67
2020/12/19 08:18:54;;;;;;;33.88;18.63;;;;;;;3.29;86.88;101569.84;10126092;28;20073;-67
2020/12/19 08:23:50;;;;;;;30.88;17.98;;;;;;;3.28;87.02;101569.03;10127293;28;20054;-65
2020/12/19 08:29:08;;;;;;;29.20;18.08;;;;;;;3.27;87.37;101572.81;10133583;28;20061;-64
2020/12/19 08:34:10;;;;;;;29.10;18.98;;;;;;;3.30;86.75;101566.91;10120059;28;20062;-66
2020/12/19 08:39:16;;;;;;;29.40;17.38;;;;;;;3.36;87.42;101554.28;10128818;28;20078;-65
2020/12/19 08:44:23;;;;;;;28.70;18.38;;;;;;;3.40;86.49;101560.81;10130244;28;20423;-63
2020/12/19 08:49:33;;;;;;;30.45;18.05;;;;;;;3.41;86.38;101570.56;10136944;28;20439;-65
2020/12/19 08:54:29;;;;;;;30.08;18.70;;;;;;;3.47;86.52;101566.88;10131893;28;20133;-65
2020/12/19 08:59:26;;;;;;;27.77;16.80;;;;;;;3.50;86.14;101566.34;10135190;28;20050;-66
2020/12/19 09:04:23;;;;;;;25.58;16.15;;;;;;;3.49;86.67;101562.03;10135160;28;20101;-66
2020/12/19 09:09:27;;;;;;;26.25;16.58;;;;;;;3.51;85.99;101562.59;10136973;28;20128;-65
2020/12/19 09:14:26;;;;;;;31.27;17.75;;;;;;;3.60;86.67;101565.69;10131989;28;20069;-65
2020/12/19 09:19:22;;;;;;;27.67;17.58;;;;;;;3.73;86.24;101564.50;10129923;28;20525;-65
2020/12/19 09:24:18;;;;;;;31.00;17.52;;;;;;;3.80;85.94;101559.72;10133833;28;20059;-65
2020/12/19 09:29:15;;;;;;;23.45;15.65;;;;;;;3.88;85.44;101556.59;10133145;28;20566;-65
2020/12/19 09:34:11;;;;;;;26.27;14.63;;;;;;;4.15;84.74;101540.38;10133281;28;20145;-65
2020/12/19 09:39:07;;;;;;;22.73;14.52;;;;;;;4.40;83.83;101542.53;10135966;28;20082;-64
2020/12/19 09:44:03;;;;;;;25.20;15.13;;;;;;;4.78;82.92;101538.00;10134225;28;20132;-65
2020/12/19 09:48:59;;;;;;;22.95;14.48;;;;;;;5.13;82.57;101528.50;10123555;28;20446;-65
2020/12/19 09:53:55;;;;;;;23.55;14.05;;;;;;;5.25;81.01;101531.81;10136735;28;21232;-65
2020/12/19 09:58:51;;;;;;;24.30;13.88;;;;;;;5.18;80.63;101525.81;10137666;28;20050;-66
2020/12/19 10:03:47;;;;;;;20.67;14.20;;;;;;;5.37;80.51;101528.91;10134647;28;20150;-65
2020/12/19 10:08:43;;;;;;;20.80;14.15;;;;;;;5.52;80.31;101524.63;10121567;28;20050;-63
2020/12/19 10:13:39;;;;;;;21.73;14.38;;;;;;;5.67;79.93;101522.81;10130212;28;20054;-65
2020/12/19 10:18:35;;;;;;;22.02;12.23;;;;;;;5.78;79.77;101514.69;10126741;28;20057;-65
2020/12/19 10:23:32;;;;;;;20.42;12.95;;;;;;;5.95;78.87;101504.47;10133687;28;20081;-66
2020/12/19 10:28:28;;;;;;;21.70;13.20;;;;;;;6.15;78.21;101495.56;10137746;28;20148;-64
2020/12/19 10:33:25;;;;;;;22.52;13.43;;;;;;;6.10;78.01;101487.38;10132390;28;20544;-65
2020/12/19 10:38:21;;;;;;;21.45;14.23;;;;;;;6.32;78.45;101487.16;10136074;28;20086;-66
2020/12/19 10:43:27;;;;;;;20.13;12.90;;;;;;;6.52;76.92;101483.63;10130075;28;20434;-64
2020/12/19 10:48:24;;;;;;;18.42;12.85;;;;;;;6.68;77.37;101492.59;10136935;28;20689;-65
2020/12/19 10:53:19;;;;;;;18.95;12.90;;;;;;;6.72;77.50;101478.19;10130706;28;20062;-66
2020/12/19 10:58:15;;;;;;;18.83;12.55;;;;;;;6.60;76.65;101479.56;10133443;28;20070;-66
2020/12/19 11:03:11;;;;;;;18.58;12.80;;;;;;;6.51;76.65;101471.13;10130018;28;20050;-66
2020/12/19 11:08:08;;;;;;;18.90;12.63;;;;;;;6.48;77.24;101472.50;10133186;28;20046;-65
2020/12/19 11:13:04;;;;;;;18.38;12.77;;;;;;;6.68;76.96;101470.84;10133054;28;20639;-66
2020/12/19 11:18:00;;;;;;;18.92;12.70;;;;;;;6.67;76.98;101456.47;10115478;28;20046;-65
2020/12/19 11:22:56;;;;;;;18.55;11.65;;;;;;;6.87;76.35;101458.34;10131548;28;20058;-63
2020/12/19 11:27:52;;;;;;;20.58;11.93;;;;;;;6.97;76.39;101451.25;10121199;28;20051;-65
2020/12/19 11:32:48;;;;;;;19.95;12.40;;;;;;;7.19;76.46;101443.56;10108739;28;20069;-66
2020/12/19 11:37:45;;;;;;;18.98;12.50;;;;;;;7.28;75.92;101439.19;10120613;28;20050;-65
2020/12/19 11:42:41;;;;;;;17.13;10.93;;;;;;;7.29;75.76;101432.66;10116193;28;20472;-65
2020/12/19 11:47:37;;;;;;;15.85;11.27;;;;;;;7.47;76.07;101427.66;10112955;28;20043;-66
2020/12/19 11:52:33;;;;;;;19.20;11.68;;;;;;;7.55;75.29;101424.38;10116705;28;20128;-65
2020/12/19 11:57:29;;;;;;;16.77;11.45;;;;;;;7.80;75.18;101429.69;10109113;28;21605;-61
2020/12/19 12:02:25;;;;;;;20.17;12.18;;;;;;;7.90;74.39;101436.16;10126629;28;20070;-66
2020/12/19 12:07:21;;;;;;;15.95;11.27;;;;;;;8.22;74.59;101443.84;10116411;28;20043;-65
2020/12/19 12:12:17;;;;;;;17.80;11.55;;;;;;;8.56;74.31;101443.88;10118945;28;20057;-65
2020/12/19 12:17:13;;;;;;;16.33;10.88;;;;;;;8.90;73.21;101432.06;10125012;28;20046;-66
2020/12/19 12:22:09;;;;;;;16.33;11.68;;;;;;;9.17;71.26;101408.88;10113866;28;20053;-65
2020/12/19 12:27:05;;;;;;;15.93;11.35;;;;;;;9.47;70.00;101408.47;10125749;28;20055;-66
2020/12/19 12:32:02;;;;;;;16.20;11.48;;;;;;;9.90;68.86;101400.22;10128218;28;20078;-66
2020/12/19 12:37:04;;;;;;;16.27;10.98;;;;;;;10.14;69.16;101398.47;10133616;28;20049;-66
2020/12/19 12:42:00;;;;;;;15.75;9.93;;;;;;;9.97;67.39;101399.03;10130905;28;20054;-66
2020/12/19 12:46:56;;;;;;;13.68;9.38;;;;;;;10.03;67.25;101393.19;10127395;28;20043;-66
2020/12/19 12:51:52;;;;;;;14.35;9.70;;;;;;;9.95;67.35;101391.13;10124738;28;20129;-66
2020/12/19 12:56:53;;;;;;;14.07;9.85;;;;;;;9.73;69.06;101378.09;10113414;28;20053;-66
2020/12/19 13:01:49;;;;;;;13.80;9.82;;;;;;;9.85;68.04;101381.16;10121239;28;20055;-65
2020/12/19 13:06:45;;;;;;;16.33;9.95;;;;;;;9.64;68.49;101371.66;10127431;28;20091;-66
2020/12/19 13:11:41;;;;;;;14.88;10.40;;;;;;;9.69;68.44;101364.19;10127187;28;20141;-65
2020/12/19 13:16:37;;;;;;;13.77;9.57;;;;;;;9.68;69.14;101359.06;10115505;28;20435;-66
2020/12/19 13:21:33;;;;;;;15.70;9.70;;;;;;;9.50;69.76;101368.06;10131188;28;20046;-65
2020/12/19 13:26:29;;;;;;;16.73;9.93;;;;;;;9.39;69.05;101351.00;10127196;28;20158;-68
2020/12/19 13:31:25;;;;;;;16.13;9.95;;;;;;;9.15;70.96;101345.59;10137592;28;20066;-66
2020/12/19 13:36:21;;;;;;;14.85;10.23;;;;;;;8.94;71.25;101340.41;10137778;28;20105;-66
2020/12/19 13:41:18;;;;;;;13.93;9.48;;;;;;;8.76;72.43;101387.50;10136404;28;20058;-66
2020/12/19 13:46:14;;;;;;;16.65;10.32;;;;;;;8.27;74.23;101380.31;10116260;28;20050;-66
2020/12/19 13:51:10;;;;;;;16.48;10.65;;;;;;;8.29;73.95;101387.09;10132905;28;20137;-65
2020/12/19 13:56:06;;;;;;;16.58;10.48;;;;;;;8.18;74.54;101371.94;10133492;28;20680;-66
2020/12/19 14:01:02;;;;;;;16.38;11.85;;;;;;;8.22;74.63;101387.44;10135301;28;20057;-64
2020/12/19 14:05:58;;;;;;;14.10;10.18;;;;;;;8.29;74.79;101378.13;10134732;28;20067;-67
2020/12/19 14:10:54;;;;;;;17.35;11.20;;;;;;;8.29;74.90;101373.50;10135072;28;20046;-66
2020/12/19 14:15:50;;;;;;;16.27;11.00;;;;;;;8.21;75.32;101383.09;10130531;28;20050;-67
2020/12/19 14:20:46;;;;;;;15.20;10.60;;;;;;;8.14;75.27;101379.06;10128335;28;20518;-66
2020/12/19 14:25:44;;;;;;;15.55;9.75;;;;;;;8.09;75.46;101374.47;10129467;28;20050;-65
2020/12/19 14:30:41;;;;;;;16.38;10.77;;;;;;;7.96;75.96;101369.66;10131535;28;20062;-66
2020/12/19 14:35:36;;;;;;;15.60;10.35;;;;;;;7.87;76.21;101371.38;10137628;28;20502;-65
2020/12/19 14:40:32;;;;;;;17.42;11.35;;;;;;;7.78;76.72;101380.16;10135233;28;20089;-65
2020/12/19 14:45:28;;;;;;;17.65;11.15;;;;;;;7.73;76.77;101372.03;10131746;28;20510;-65
2020/12/19 14:50:25;;;;;;;17.38;11.30;;;;;;;7.62;77.31;101370.44;10134340;28;20442;-67
2020/12/19 14:55:21;;;;;;;16.52;11.48;;;;;;;7.55;77.60;101364.50;10116367;28;20143;-67
2020/12/19 15:00:17;;;;;;;17.30;11.27;;;;;;;7.51;77.76;101338.94;10119160;28;20063;-65
2020/12/19 15:05:13;;;;;;;16.50;10.98;;;;;;;7.47;77.99;101346.03;10134173;28;20085;-66
2020/12/19 15:10:09;;;;;;;16.20;10.90;;;;;;;7.42;78.25;101371.38;10130466;28;20820;-66
2020/12/19 15:15:06;;;;;;;14.85;10.75;;;;;;;7.35;78.48;101360.78;10122269;28;20150;-65
2020/12/19 15:20:03;;;;;;;14.55;10.75;;;;;;;7.31;78.87;101354.31;10131092;28;20054;-65
2020/12/19 15:24:59;;;;;;;15.30;10.45;;;;;;;7.31;78.95;101357.03;10124609;28;20477;-66
2020/12/19 15:29:55;;;;;;;15.68;10.60;;;;;;;7.28;79.05;101365.72;10122615;28;20480;-66
2020/12/19 15:34:51;;;;;;;14.68;9.68;;;;;;;7.25;79.42;101365.50;10124332;28;20105;-65
2020/12/19 15:39:48;;;;;;;15.48;9.82;;;;;;;7.23;79.38;101373.91;10123634;28;20055;-65
2020/12/19 15:44:44;;;;;;;17.52;10.55;;;;;;;7.22;79.20;101372.31;10124132;28;20050;-65
2020/12/19 15:49:41;;;;;;;14.68;9.65;;;;;;;7.17;79.63;101366.88;10104267;28;20138;-65
2020/12/19 15:54:37;;;;;;;15.13;9.45;;;;;;;7.14;79.57;101381.03;10131096;28;20486;-65
2020/12/19 15:59:33;;;;;;;18.65;10.52;;;;;;;7.08;79.82;101371.28;10105564;28;20536;-64
2020/12/19 16:04:29;;;;;;;13.88;9.43;;;;;;;7.06;80.12;101359.88;10128547;28;20050;-65
2020/12/19 16:09:25;;;;;;;16.63;10.52;;;;;;;7.05;80.03;101360.94;10126948;28;20046;-66
2020/12/19 16:14:22;;;;;;;12.70;9.55;;;;;;;7.00;80.06;101358.25;10134968;28;20054;-65
2020/12/19 16:19:18;;;;;;;14.85;9.75;;;;;;;6.98;80.36;101365.88;10120132;28;20061;-64
2020/12/19 16:24:15;;;;;;;12.63;8.90;;;;;;;6.93;80.30;101364.78;10132196;28;20470;-65
2020/12/19 16:29:11;;;;;;;17.85;10.52;;;;;;;6.97;79.97;101380.56;10137024;28;20054;-65
2020/12/19 16:34:07;;;;;;;13.50;9.07;;;;;;;6.90;79.87;101381.66;10139470;28;20062;-65
2020/12/19 16:39:04;;;;;;;16.20;9.73;;;;;;;6.89;79.68;101393.66;10124527;28;20062;-65
2020/12/19 16:44:01;;;;;;;13.48;8.63;;;;;;;6.80;80.32;101392.59;10135247;28;20090;-65
2020/12/19 16:48:57;;;;;;;16.95;10.65;;;;;;;6.83;79.94;101386.59;10120190;28;20050;-64
2020/12/19 16:53:54;;;;;;;15.18;10.57;;;;;;;6.79;80.47;101393.66;10132000;28;20105;-65
2020/12/19 16:58:50;;;;;;;16.25;10.68;;;;;;;6.71;80.45;101389.59;10129812;28;20070;-66
2020/12/19 17:03:47;;;;;;;14.40;9.23;;;;;;;6.70;80.20;101404.25;10122890;28;20077;-64
2020/12/19 17:08:43;;;;;;;15.07;9.23;;;;;;;6.69;80.38;101399.13;10133925;28;20050;-64
2020/12/19 17:13:39;;;;;;;14.90;9.55;;;;;;;6.67;80.25;101398.59;10134455;28;20046;-64
2020/12/19 17:18:35;;;;;;;16.50;10.40;;;;;;;6.67;80.93;101399.38;10136864;28;20502;-64
2020/12/19 17:23:31;;;;;;;16.83;9.60;;;;;;;6.65;80.59;101398.03;10136892;28;20069;-67
2020/12/19 17:28:27;;;;;;;13.93;8.50;;;;;;;6.64;80.87;101401.84;10135022;28;20082;-63
2020/12/19 17:33:23;;;;;;;14.65;9.70;;;;;;;6.63;80.82;101419.22;10129911;28;20145;-64
2020/12/19 17:38:19;;;;;;;12.52;8.52;;;;;;;6.61;80.89;101432.28;10136138;28;20685;-65
2020/12/19 17:43:15;;;;;;;16.27;9.80;;;;;;;6.61;80.54;101432.28;10143008;28;20108;-66
2020/12/19 17:48:11;;;;;;;13.77;8.57;;;;;;;6.58;80.49;101433.63;10116057;28;20047;-66
2020/12/19 17:53:07;;;;;;;14.77;9.23;;;;;;;6.63;80.46;101433.63;10131803;28;20054;-64
2020/12/19 17:58:04;;;;;;;12.60;8.50;;;;;;;6.66;80.91;101424.94;10132273;28;20522;-65
2020/12/19 18:03:00;;;;;;;16.67;9.43;;;;;;;6.75;80.38;101438.78;10126010;28;20061;-64
2020/12/19 18:07:56;;;;;;;14.00;8.70;;;;;;;6.83;80.20;101432.78;10125861;28;20051;-64
2020/12/19 18:12:52;;;;;;;11.85;8.27;;;;;;;6.89;79.80;101423.56;10129632;28;20054;-64
2020/12/19 18:17:50;;;;;;;12.75;8.05;;;;;;;6.93;79.69;101430.03;10127206;28;20050;-64
2020/12/19 18:22:47;;;;;;;14.02;7.63;;;;;;;6.97;79.70;101421.34;10138530;28;20054;-65
2020/12/19 18:27:43;;;;;;;10.57;7.13;;;;;;;6.99;79.61;101439.00;10130980;28;20057;-66
2020/12/19 18:32:40;;;;;;;9.65;6.97;;;;;;;7.04;79.23;101430.03;10130326;28;20078;-65
2020/12/19 18:37:36;;;;;;;11.27;7.57;;;;;;;7.07;78.99;101435.72;10135137;28;20078;-65
2020/12/19 18:42:33;;;;;;;11.45;7.00;;;;;;;7.14;79.10;101440.88;10131510;28;20062;-66
2020/12/19 18:47:29;;;;;;;10.80;6.82;;;;;;;7.15;78.78;101447.94;10122529;28;20174;-66
2020/12/19 18:52:25;;;;;;;12.38;7.85;;;;;;;7.20;78.50;101455.28;10134201;28;20062;-65
2020/12/19 18:57:25;;;;;;;11.70;6.60;;;;;;;7.23;78.78;101449.28;10111978;28;20202;-67
2020/12/19 19:02:26;;;;;;;11.13;7.10;;;;;;;7.24;78.44;101457.16;10110437;28;20054;-66
2020/12/19 19:07:24;;;;;;;14.70;7.68;;;;;;;7.32;77.99;101462.03;10123713;28;20050;-64
2020/12/19 19:12:20;;;;;;;10.32;6.97;;;;;;;7.31;77.92;101463.13;10126329;28;20045;-64
2020/12/19 19:17:16;;;;;;;10.13;6.82;;;;;;;7.37;78.35;101467.44;10130560;28;20153;-64
2020/12/19 19:22:12;;;;;;;11.27;6.93;;;;;;;7.38;78.22;101466.34;10127864;28;20061;-65
2020/12/19 19:27:09;;;;;;;12.05;7.47;;;;;;;7.41;77.64;101467.72;10110035;28;20494;-62
2020/12/19 19:32:05;;;;;;;11.93;6.28;;;;;;;7.40;77.51;101470.69;10118794;28;20518;-63
2020/12/19 19:37:01;;;;;;;11.75;7.68;;;;;;;7.43;77.69;101481.03;10130713;28;20138;-63
2020/12/19 19:41:59;;;;;;;10.27;6.78;;;;;;;7.43;77.98;101491.94;10120208;28;20051;-64
2020/12/19 19:46:55;;;;;;;11.90;6.70;;;;;;;7.47;77.84;101482.09;10122347;28;20047;-64
2020/12/19 19:51:51;;;;;;;10.25;6.63;;;;;;;7.55;77.42;101495.13;10110040;28;20058;-63
2020/12/19 19:56:53;;;;;;;11.52;6.93;;;;;;;7.61;76.97;101494.00;10119295;28;20086;-64
2020/12/19 20:01:49;;;;;;;11.38;5.82;;;;;;;7.65;77.41;101495.09;10111048;28;20529;-65
2020/12/19 20:06:45;;;;;;;11.05;5.68;;;;;;;7.69;76.54;101501.59;10099978;28;20109;-64
2020/12/19 20:11:42;;;;;;;11.80;6.20;;;;;;;7.73;76.28;101502.69;10125200;28;20056;-65
2020/12/19 20:16:38;;;;;;;11.80;6.72;;;;;;;7.75;76.83;101516.00;10116623;28;20061;-64
2020/12/19 20:21:42;;;;;;;14.32;6.75;;;;;;;7.72;76.35;101517.38;10121191;28;20066;-65
2020/12/19 20:26:55;;;;;;;9.25;6.10;;;;;;;7.75;76.45;101519.56;10117635;28;20050;-65
2020/12/19 20:31:51;;;;;;;9.80;5.82;;;;;;;7.84;76.81;101521.69;10116339;28;20066;-64
2020/12/19 20:36:47;;;;;;;11.18;6.50;;;;;;;7.84;76.50;101525.22;10116061;28;20046;-65
2020/12/19 20:41:43;;;;;;;9.70;6.13;;;;;;;7.93;76.70;101522.72;10128651;28;20453;-65
2020/12/19 20:46:40;;;;;;;10.30;6.05;;;;;;;7.95;76.45;101509.66;10127340;28;20625;-65
2020/12/19 20:51:35;;;;;;;10.30;5.47;;;;;;;7.93;75.92;101522.72;10129524;28;20535;-65
2020/12/19 20:56:32;;;;;;;11.82;6.07;;;;;;;7.93;76.46;101511.84;10128138;28;20085;-65
2020/12/19 21:01:29;;;;;;;9.15;5.55;;;;;;;7.89;76.55;101511.59;10121741;28;20054;-63
2020/12/19 21:06:27;;;;;;;9.68;6.15;;;;;;;7.89;76.69;101518.94;10128694;28;20618;-63
2020/12/19 21:11:23;;;;;;;9.23;5.90;;;;;;;7.97;76.88;101523.81;10116259;28;20082;-65
2020/12/19 21:16:20;;;;;;;15.77;7.38;;;;;;;7.92;76.76;101526.56;10136675;28;20100;-64
2020/12/19 21:21:16;;;;;;;11.68;5.32;;;;;;;7.96;76.34;101519.44;10130814;28;20850;-65
2020/12/19 21:26:13;;;;;;;8.40;5.18;;;;;;;7.91;76.34;101533.88;10122298;28;20481;-65
2020/12/19 21:31:09;;;;;;;8.48;5.65;;;;;;;7.96;76.25;101544.78;10123982;28;20054;-64
2020/12/19 21:36:05;;;;;;;7.80;4.80;;;;;;;7.92;76.58;101548.34;10128588;28;20057;-65
2020/12/19 21:41:01;;;;;;;10.82;5.85;;;;;;;8.00;76.35;101545.00;10130538;28;20403;-65
2020/12/19 21:45:58;;;;;;;7.80;4.90;;;;;;;8.05;76.60;101553.16;10129866;28;20621;-65
2020/12/19 21:50:54;;;;;;;11.80;5.95;;;;;;;7.98;76.59;101563.53;10130752;28;20058;-65
2020/12/19 21:55:50;;;;;;;9.77;5.75;;;;;;;7.97;76.51;101568.19;10135685;28;20054;-65
2020/12/19 22:00:46;;;;;;;10.20;6.32;;;;;;;7.98;76.65;101568.97;10144339;28;20077;-64
2020/12/19 22:05:42;;;;;;;9.23;5.10;;;;;;;8.05;76.56;101558.59;10127380;28;20134;-65
2020/12/19 22:10:38;;;;;;;8.82;5.03;;;;;;;7.90;76.84;101561.41;10129592;28;20051;-65
2020/12/19 22:15:34;;;;;;;9.35;5.90;;;;;;;7.92;76.80;101570.13;10121866;28;20085;-65
2020/12/19 22:20:30;;;;;;;10.20;6.78;;;;;;;8.04;76.95;101567.88;10126110;28;20817;-65
2020/12/19 22:25:26;;;;;;;9.05;5.65;;;;;;;8.09;76.66;101570.56;10126351;28;20141;-65
2020/12/19 22:30:22;;;;;;;9.10;5.80;;;;;;;8.13;76.75;101571.66;10125579;28;20487;-65
2020/12/19 22:35:18;;;;;;;9.00;5.20;;;;;;;8.11;76.61;101562.13;10127988;28;20089;-65